Airfield :
LOGIN :

Register | Disclaimer

   EN    FR    IT 

 










Legend :    VFR   Marginal VFR   IFR   Intensive IFR   Very Intensive IFR
Visi :
Ceiling :
>= 8 km
>= 3000ft
5 to 8 km
1000 to 3000 ft
1500m to 5 km
500 to 1000 ft
800 to 1500m
200 to 500 ft
< 800m
< 200 ft
Symbols :   Thunderstorms  Fog  Heavy snow  Heavy precipitations  Wind > 20 kt
SIGMETs :     Misc.  Thunderstorms  Icing  Turbulence  Mountain Waves  Volcanic Ashes






- Airport Elevation : 249 ft


EGOS - RAF Shawbury

CURRENT METAR :
  • 261150Z 15009KT 9999 FEW018 SCT030 OVC040 03/01 Q1012 BECMG -RA BKN018 RMK BLACKBLU BECMG WHT

EXPIRED METARs :
  • 261120Z 17006KT 9999 -RA FEW020 OVC040 03/01 Q1013 BECMG BKN020 RMK BLACKBLU BECMG WHT
  • 261050Z 17006KT 9999 FEW035 OVC050 03/00 Q1013 BECMG -RA BKN020 RMK BLACKBLU BECMG WHT
  • 261020Z 17005KT 9999 FEW035 SCT045 OVC050 03/01 Q1013 BECMG -RA BKN020 RMK BLACKBLU BECMG WHT
  • 260950Z 15003KT 9999 FEW035 OVC070 03/01 Q1013 BECMG -RA BKN020 RMK BLACKBLU BECMG WHT
  • 260920Z 17005KT 9999 FEW035 OVC070 02/01 Q1014 BECMG -RA BKN020 RMK BLACKBLU BECMG WHT

TAF AMD TAF EGOS
Valid from the 26 at 09:00 until the 26 at 18:00 UTC


260943Z 2609/2618 16005KT 9999 SCT040
TEMPO 2609/2614 6000 RA
BECMG 2610/2613 BKN018
PROB30
TEMPO 2610/2614 4000 -RADZ
BECMG 2613/2615 BKN008
PROB40
TEMPO 2614/2618 3000 RADZ SCT004 BKN006



MET'MAP, your aeronautical weather chart ! - Copyright ORBIFLY December 2007 - Disclaimer

ORBIFLY MET'MAP TEAM :

Programming & Development : Alexandra Zaïnal
Concept & original design : Baudouin d'Aumeries
Assistance for programming : Marc-Olivier Méhu
Technical & hardware support : Manuel Goepfert

Contact : metmap@orbifly.com




SOURCES & CREDITS :

   NOAA